Ruffner, Alabama
Current Conditions -  °F | °C
As of 4:53 PM on Thursday 23 Oct 2014 (Local Time) from KBHM Reporting Station
Broken Clouds Broken Clouds  
Wind Chill: 67°   Ceiling: 25000
Heat Index: 67°   Visibility: 10mi
Dew Point: 41°   Wind: 7mph
Humidity: 39%   Direction: 340°NNW
Pressure: 30.09"   Gusts: NA
Location:  33.5393°N, 86.6626°W
Report Text: KBHM 232153Z 34006KT 10SM BKN250 19/05 A3009 RMK AO2 SLP185 T01940050
Loading
Personal Weather Stations






























Interactive Weather Map
Tropical Storm Tracking
New forecast layout! Learn more

10-Day Weather Forecast

Advertisements
Track Severe Weather on mobile